sensor_id;sensor_type;location;lat;lon;timestamp;temperature;humidity
7998;DHT22;4044;49.814;7.828;2022-10-31T00:00:22;10.30;99.90
7998;DHT22;4044;49.814;7.828;2022-10-31T00:02:47;10.40;99.90
7998;DHT22;4044;49.814;7.828;2022-10-31T00:05:13;10.40;99.90
7998;DHT22;4044;49.814;7.828;2022-10-31T00:07:39;10.40;99.90
7998;DHT22;4044;49.814;7.828;2022-10-31T00:10:05;10.40;99.90
7998;DHT22;4044;49.814;7.828;2022-10-31T00:12:31;10.50;99.90
7998;DHT22;4044;49.814;7.828;2022-10-31T00:14:56;10.50;99.90
7998;DHT22;4044;49.814;7.828;2022-10-31T00:17:22;10.50;99.90
7998;DHT22;4044;49.814;7.828;2022-10-31T00:19:47;10.50;99.90
7998;DHT22;4044;49.814;7.828;2022-10-31T00:22:13;10.50;99.90
7998;DHT22;4044;49.814;7.828;2022-10-31T00:24:39;10.50;99.90
7998;DHT22;4044;49.814;7.828;2022-10-31T00:27:04;10.50;99.90
7998;DHT22;4044;49.814;7.828;2022-10-31T00:29:30;10.50;99.90
7998;DHT22;4044;49.814;7.828;2022-10-31T00:31:55;10.50;99.90
7998;DHT22;4044;49.814;7.828;2022-10-31T00:34:21;10.50;99.90
7998;DHT22;4044;49.814;7.828;2022-10-31T00:36:46;10.50;99.90
7998;DHT22;4044;49.814;7.828;2022-10-31T00:39:12;10.50;99.90
7998;DHT22;4044;49.814;7.828;2022-10-31T00:41:37;10.50;99.90
7998;DHT22;4044;49.814;7.828;2022-10-31T00:44:03;10.60;99.90
7998;DHT22;4044;49.814;7.828;2022-10-31T00:46:28;10.60;99.90
7998;DHT22;4044;49.814;7.828;2022-10-31T00:48:54;10.60;99.90
7998;DHT22;4044;49.814;7.828;2022-10-31T00:51:19;10.60;99.90
7998;DHT22;4044;49.814;7.828;2022-10-31T00:53:45;10.60;99.90
7998;DHT22;4044;49.814;7.828;2022-10-31T00:56:10;10.70;99.90
7998;DHT22;4044;49.814;7.828;2022-10-31T00:58:36;10.70;99.90
7998;DHT22;4044;49.814;7.828;2022-10-31T01:01:02;10.70;99.90
7998;DHT22;4044;49.814;7.828;2022-10-31T01:03:30;10.70;99.90
7998;DHT22;4044;49.814;7.828;2022-10-31T01:06:06;10.70;99.90
7998;DHT22;4044;49.814;7.828;2022-10-31T01:08:32;10.70;99.90
7998;DHT22;4044;49.814;7.828;2022-10-31T01:11:07;10.60;99.90
7998;DHT22;4044;49.814;7.828;2022-10-31T01:13:34;10.50;99.90
7998;DHT22;4044;49.814;7.828;2022-10-31T01:16:00;10.40;99.90
7998;DHT22;4044;49.814;7.828;2022-10-31T01:18:26;10.40;99.90
7998;DHT22;4044;49.814;7.828;2022-10-31T01:23:29;10.30;99.90
7998;DHT22;4044;49.814;7.828;2022-10-31T01:26:11;10.40;99.90
7998;DHT22;4044;49.814;7.828;2022-10-31T01:28:39;10.50;99.90
7998;DHT22;4044;49.814;7.828;2022-10-31T01:31:07;10.50;99.90
7998;DHT22;4044;49.814;7.828;2022-10-31T01:33:34;10.50;99.90
7998;DHT22;4044;49.814;7.828;2022-10-31T01:36:00;10.50;99.90
7998;DHT22;4044;49.814;7.828;2022-10-31T01:38:25;10.50;99.90
7998;DHT22;4044;49.814;7.828;2022-10-31T01:40:51;10.50;99.90
7998;DHT22;4044;49.814;7.828;2022-10-31T01:43:17;10.50;99.90
7998;DHT22;4044;49.814;7.828;2022-10-31T01:45:46;10.50;99.90
7998;DHT22;4044;49.814;7.828;2022-10-31T01:48:18;10.50;99.90
7998;DHT22;4044;49.814;7.828;2022-10-31T01:50:48;10.50;99.90
7998;DHT22;4044;49.814;7.828;2022-10-31T01:53:15;10.50;99.90
7998;DHT22;4044;49.814;7.828;2022-10-31T01:55:43;10.50;99.90
7998;DHT22;4044;49.814;7.828;2022-10-31T01:58:15;10.50;99.90
7998;DHT22;4044;49.814;7.828;2022-10-31T02:00:44;10.50;99.90
7998;DHT22;4044;49.814;7.828;2022-10-31T02:03:10;10.60;99.90
7998;DHT22;4044;49.814;7.828;2022-10-31T02:05:36;10.60;99.90
7998;DHT22;4044;49.814;7.828;2022-10-31T02:08:28;10.40;99.90
7998;DHT22;4044;49.814;7.828;2022-10-31T02:10:56;10.40;99.90
7998;DHT22;4044;49.814;7.828;2022-10-31T02:13:22;10.50;99.90
7998;DHT22;4044;49.814;7.828;2022-10-31T02:15:54;10.60;99.90
7998;DHT22;4044;49.814;7.828;2022-10-31T02:18:21;10.40;99.90
7998;DHT22;4044;49.814;7.828;2022-10-31T02:26:29;10.60;99.90
7998;DHT22;4044;49.814;7.828;2022-10-31T02:31:34;10.50;99.90
7998;DHT22;4044;49.814;7.828;2022-10-31T02:34:25;10.50;99.90
7998;DHT22;4044;49.814;7.828;2022-10-31T02:37:17;10.50;99.90
7998;DHT22;4044;49.814;7.828;2022-10-31T02:40:12;10.40;99.90
7998;DHT22;4044;49.814;7.828;2022-10-31T02:42:55;10.40;99.90
7998;DHT22;4044;49.814;7.828;2022-10-31T02:45:33;10.30;99.90
7998;DHT22;4044;49.814;7.828;2022-10-31T02:48:05;10.30;99.90
7998;DHT22;4044;49.814;7.828;2022-10-31T02:50:35;10.30;99.90
7998;DHT22;4044;49.814;7.828;2022-10-31T02:53:03;10.30;99.90
7998;DHT22;4044;49.814;7.828;2022-10-31T02:58:00;10.30;99.90
7998;DHT22;4044;49.814;7.828;2022-10-31T03:00:27;10.30;99.90
7998;DHT22;4044;49.814;7.828;2022-10-31T03:03:19;10.40;99.90
7998;DHT22;4044;49.814;7.828;2022-10-31T03:11:14;10.20;99.90
7998;DHT22;4044;49.814;7.828;2022-10-31T03:14:10;10.10;99.90
7998;DHT22;4044;49.814;7.828;2022-10-31T03:16:51;10.10;99.90
7998;DHT22;4044;49.814;7.828;2022-10-31T03:19:19;10.00;99.90
7998;DHT22;4044;49.814;7.828;2022-10-31T03:21:53;9.90;99.90
7998;DHT22;4044;49.814;7.828;2022-10-31T03:24:24;9.80;99.90
7998;DHT22;4044;49.814;7.828;2022-10-31T03:26:53;9.80;99.90
7998;DHT22;4044;49.814;7.828;2022-10-31T03:29:23;9.80;99.90
7998;DHT22;4044;49.814;7.828;2022-10-31T03:31:56;9.80;99.90
7998;DHT22;4044;49.814;7.828;2022-10-31T03:34:22;9.80;99.90
7998;DHT22;4044;49.814;7.828;2022-10-31T03:36:53;9.80;99.90
7998;DHT22;4044;49.814;7.828;2022-10-31T03:39:22;9.80;99.90
7998;DHT22;4044;49.814;7.828;2022-10-31T03:41:55;9.80;99.90
7998;DHT22;4044;49.814;7.828;2022-10-31T03:44:22;9.80;99.90
7998;DHT22;4044;49.814;7.828;2022-10-31T03:46:49;9.70;99.90
7998;DHT22;4044;49.814;7.828;2022-10-31T03:49:15;9.70;99.90
7998;DHT22;4044;49.814;7.828;2022-10-31T03:51:45;9.70;99.90
7998;DHT22;4044;49.814;7.828;2022-10-31T03:54:21;9.70;99.90
7998;DHT22;4044;49.814;7.828;2022-10-31T03:56:58;9.70;99.90
7998;DHT22;4044;49.814;7.828;2022-10-31T03:59:39;9.70;99.90
7998;DHT22;4044;49.814;7.828;2022-10-31T04:02:09;9.60;99.90
7998;DHT22;4044;49.814;7.828;2022-10-31T04:04:36;9.60;99.90
7998;DHT22;4044;49.814;7.828;2022-10-31T04:07:03;9.60;99.90
7998;DHT22;4044;49.814;7.828;2022-10-31T04:09:33;9.70;99.90
7998;DHT22;4044;49.814;7.828;2022-10-31T04:12:01;9.70;99.90
7998;DHT22;4044;49.814;7.828;2022-10-31T04:14:29;9.70;99.90
7998;DHT22;4044;49.814;7.828;2022-10-31T04:16:56;9.60;99.90
7998;DHT22;4044;49.814;7.828;2022-10-31T04:19:22;9.60;99.90
7998;DHT22;4044;49.814;7.828;2022-10-31T04:21:48;9.60;99.90
7998;DHT22;4044;49.814;7.828;2022-10-31T04:24:13;9.70;99.90
7998;DHT22;4044;49.814;7.828;2022-10-31T04:26:39;9.70;99.90
7998;DHT22;4044;49.814;7.828;2022-10-31T04:29:04;9.70;99.90
7998;DHT22;4044;49.814;7.828;2022-10-31T04:31:30;9.70;99.90
7998;DHT22;4044;49.814;7.828;2022-10-31T04:33:55;9.80;99.90
7998;DHT22;4044;49.814;7.828;2022-10-31T04:36:21;9.70;99.90
7998;DHT22;4044;49.814;7.828;2022-10-31T04:38:46;9.80;99.90
7998;DHT22;4044;49.814;7.828;2022-10-31T04:41:12;9.80;99.90
7998;DHT22;4044;49.814;7.828;2022-10-31T04:43:37;9.80;99.90
7998;DHT22;4044;49.814;7.828;2022-10-31T04:46:03;9.70;99.90
7998;DHT22;4044;49.814;7.828;2022-10-31T04:48:29;9.70;99.90
7998;DHT22;4044;49.814;7.828;2022-10-31T04:50:59;9.60;99.90
7998;DHT22;4044;49.814;7.828;2022-10-31T04:53:25;9.60;99.90
7998;DHT22;4044;49.814;7.828;2022-10-31T04:55:51;9.60;99.90
7998;DHT22;4044;49.814;7.828;2022-10-31T04:58:16;9.60;99.90
7998;DHT22;4044;49.814;7.828;2022-10-31T05:00:42;9.60;99.90
7998;DHT22;4044;49.814;7.828;2022-10-31T05:03:07;9.70;99.90
7998;DHT22;4044;49.814;7.828;2022-10-31T05:05:33;9.60;99.90
7998;DHT22;4044;49.814;7.828;2022-10-31T05:07:58;9.60;99.90
7998;DHT22;4044;49.814;7.828;2022-10-31T05:10:26;9.60;99.90
7998;DHT22;4044;49.814;7.828;2022-10-31T05:12:54;9.70;99.90
7998;DHT22;4044;49.814;7.828;2022-10-31T05:15:22;9.60;99.90
7998;DHT22;4044;49.814;7.828;2022-10-31T05:17:48;9.60;99.90
7998;DHT22;4044;49.814;7.828;2022-10-31T05:20:14;9.50;99.90
7998;DHT22;4044;49.814;7.828;2022-10-31T05:22:48;9.50;99.90
7998;DHT22;4044;49.814;7.828;2022-10-31T05:25:14;9.50;99.90
7998;DHT22;4044;49.814;7.828;2022-10-31T05:27:41;9.50;99.90
7998;DHT22;4044;49.814;7.828;2022-10-31T05:30:07;9.50;99.90
7998;DHT22;4044;49.814;7.828;2022-10-31T05:32:43;9.50;99.90
7998;DHT22;4044;49.814;7.828;2022-10-31T05:35:14;9.50;99.90
7998;DHT22;4044;49.814;7.828;2022-10-31T05:37:40;9.40;99.90
7998;DHT22;4044;49.814;7.828;2022-10-31T05:40:08;9.40;99.90
7998;DHT22;4044;49.814;7.828;2022-10-31T05:42:35;9.50;99.90
7998;DHT22;4044;49.814;7.828;2022-10-31T05:45:00;9.40;99.90
7998;DHT22;4044;49.814;7.828;2022-10-31T05:47:27;9.40;99.90
7998;DHT22;4044;49.814;7.828;2022-10-31T05:49:52;9.40;99.90
7998;DHT22;4044;49.814;7.828;2022-10-31T05:52:18;9.40;99.90
7998;DHT22;4044;49.814;7.828;2022-10-31T05:54:44;9.30;99.90
7998;DHT22;4044;49.814;7.828;2022-10-31T05:57:09;9.20;99.90
7998;DHT22;4044;49.814;7.828;2022-10-31T05:59:35;9.20;99.90
7998;DHT22;4044;49.814;7.828;2022-10-31T06:02:00;9.20;99.90
7998;DHT22;4044;49.814;7.828;2022-10-31T06:04:26;9.10;99.90
7998;DHT22;4044;49.814;7.828;2022-10-31T06:06:51;9.10;99.90
7998;DHT22;4044;49.814;7.828;2022-10-31T06:09:17;9.10;99.90
7998;DHT22;4044;49.814;7.828;2022-10-31T06:11:42;9.10;99.90
7998;DHT22;4044;49.814;7.828;2022-10-31T06:14:08;9.10;99.90
7998;DHT22;4044;49.814;7.828;2022-10-31T06:16:33;9.10;99.90
7998;DHT22;4044;49.814;7.828;2022-10-31T06:18:59;9.10;99.90
7998;DHT22;4044;49.814;7.828;2022-10-31T06:21:24;9.10;99.90
7998;DHT22;4044;49.814;7.828;2022-10-31T06:23:50;9.10;99.90
7998;DHT22;4044;49.814;7.828;2022-10-31T06:26:15;9.10;99.90
7998;DHT22;4044;49.814;7.828;2022-10-31T06:28:41;9.10;99.90
7998;DHT22;4044;49.814;7.828;2022-10-31T06:31:06;9.10;99.90
7998;DHT22;4044;49.814;7.828;2022-10-31T06:33:33;9.10;99.90
7998;DHT22;4044;49.814;7.828;2022-10-31T06:35:59;9.20;99.90
7998;DHT22;4044;49.814;7.828;2022-10-31T06:38:26;9.20;99.90
7998;DHT22;4044;49.814;7.828;2022-10-31T06:40:52;9.20;99.90
7998;DHT22;4044;49.814;7.828;2022-10-31T06:43:18;9.20;99.90
7998;DHT22;4044;49.814;7.828;2022-10-31T06:45:43;9.20;99.90
7998;DHT22;4044;49.814;7.828;2022-10-31T06:48:09;9.30;99.90
7998;DHT22;4044;49.814;7.828;2022-10-31T06:50:34;9.30;99.90
7998;DHT22;4044;49.814;7.828;2022-10-31T06:53:00;9.40;99.90
7998;DHT22;4044;49.814;7.828;2022-10-31T06:55:26;9.50;99.90
7998;DHT22;4044;49.814;7.828;2022-10-31T06:57:52;9.60;99.90
7998;DHT22;4044;49.814;7.828;2022-10-31T07:00:19;9.60;99.90
7998;DHT22;4044;49.814;7.828;2022-10-31T07:02:56;9.70;99.90
7998;DHT22;4044;49.814;7.828;2022-10-31T07:05:22;9.80;99.90
7998;DHT22;4044;49.814;7.828;2022-10-31T07:07:52;9.80;99.90
7998;DHT22;4044;49.814;7.828;2022-10-31T07:10:18;9.80;99.90
7998;DHT22;4044;49.814;7.828;2022-10-31T07:12:43;9.90;99.90
7998;DHT22;4044;49.814;7.828;2022-10-31T07:15:09;10.00;99.90
7998;DHT22;4044;49.814;7.828;2022-10-31T07:17:34;10.00;99.90
7998;DHT22;4044;49.814;7.828;2022-10-31T07:20:00;10.10;99.90
7998;DHT22;4044;49.814;7.828;2022-10-31T07:22:34;10.20;99.90
7998;DHT22;4044;49.814;7.828;2022-10-31T07:25:00;10.30;99.90
7998;DHT22;4044;49.814;7.828;2022-10-31T07:27:25;10.50;99.90
7998;DHT22;4044;49.814;7.828;2022-10-31T07:29:51;10.60;99.90
7998;DHT22;4044;49.814;7.828;2022-10-31T07:32:17;10.70;99.90
7998;DHT22;4044;49.814;7.828;2022-10-31T07:34:42;10.80;99.90
7998;DHT22;4044;49.814;7.828;2022-10-31T07:37:07;10.90;99.90
7998;DHT22;4044;49.814;7.828;2022-10-31T07:39:33;10.90;99.90
7998;DHT22;4044;49.814;7.828;2022-10-31T07:41:59;11.00;99.90
7998;DHT22;4044;49.814;7.828;2022-10-31T07:44:24;11.10;99.90
7998;DHT22;4044;49.814;7.828;2022-10-31T07:46:50;11.20;99.90
7998;DHT22;4044;49.814;7.828;2022-10-31T07:49:15;11.20;99.90
7998;DHT22;4044;49.814;7.828;2022-10-31T07:51:41;11.20;99.90
7998;DHT22;4044;49.814;7.828;2022-10-31T07:54:06;11.20;99.90
7998;DHT22;4044;49.814;7.828;2022-10-31T07:56:32;11.20;99.90
7998;DHT22;4044;49.814;7.828;2022-10-31T07:58:57;11.30;99.90
7998;DHT22;4044;49.814;7.828;2022-10-31T08:01:23;11.50;99.90
7998;DHT22;4044;49.814;7.828;2022-10-31T08:03:48;11.50;99.90
7998;DHT22;4044;49.814;7.828;2022-10-31T08:06:14;11.50;99.90
7998;DHT22;4044;49.814;7.828;2022-10-31T08:08:39;11.60;99.90
7998;DHT22;4044;49.814;7.828;2022-10-31T08:11:05;11.60;99.90
7998;DHT22;4044;49.814;7.828;2022-10-31T08:13:30;11.70;99.90
7998;DHT22;4044;49.814;7.828;2022-10-31T08:15:57;11.80;99.90
7998;DHT22;4044;49.814;7.828;2022-10-31T08:18:29;11.90;99.90
7998;DHT22;4044;49.814;7.828;2022-10-31T08:20:54;12.00;99.90
7998;DHT22;4044;49.814;7.828;2022-10-31T08:23:20;12.10;99.90
7998;DHT22;4044;49.814;7.828;2022-10-31T08:25:46;12.20;99.90
7998;DHT22;4044;49.814;7.828;2022-10-31T08:28:13;12.30;99.90
7998;DHT22;4044;49.814;7.828;2022-10-31T08:30:40;12.30;99.90
7998;DHT22;4044;49.814;7.828;2022-10-31T08:33:15;12.40;99.90
7998;DHT22;4044;49.814;7.828;2022-10-31T08:35:42;12.50;99.90
7998;DHT22;4044;49.814;7.828;2022-10-31T08:38:12;12.50;99.90
7998;DHT22;4044;49.814;7.828;2022-10-31T08:40:38;12.60;99.90
7998;DHT22;4044;49.814;7.828;2022-10-31T08:43:06;12.70;99.90
7998;DHT22;4044;49.814;7.828;2022-10-31T08:45:33;12.90;99.90
7998;DHT22;4044;49.814;7.828;2022-10-31T08:48:06;12.90;99.90
7998;DHT22;4044;49.814;7.828;2022-10-31T08:50:34;13.00;99.90
7998;DHT22;4044;49.814;7.828;2022-10-31T08:53:01;13.10;99.90
7998;DHT22;4044;49.814;7.828;2022-10-31T08:55:27;13.20;99.90
7998;DHT22;4044;49.814;7.828;2022-10-31T08:57:57;13.40;99.90
7998;DHT22;4044;49.814;7.828;2022-10-31T09:00:23;13.40;99.90
7998;DHT22;4044;49.814;7.828;2022-10-31T09:02:55;13.50;99.90
7998;DHT22;4044;49.814;7.828;2022-10-31T09:05:20;13.70;99.90
7998;DHT22;4044;49.814;7.828;2022-10-31T09:07:46;13.80;99.90
7998;DHT22;4044;49.814;7.828;2022-10-31T09:10:11;13.90;99.90
7998;DHT22;4044;49.814;7.828;2022-10-31T09:12:37;14.00;99.90
7998;DHT22;4044;49.814;7.828;2022-10-31T09:15:02;14.20;99.90
7998;DHT22;4044;49.814;7.828;2022-10-31T09:17:28;14.20;99.90
7998;DHT22;4044;49.814;7.828;2022-10-31T09:19:54;14.20;99.90
7998;DHT22;4044;49.814;7.828;2022-10-31T09:22:20;14.20;99.90
7998;DHT22;4044;49.814;7.828;2022-10-31T09:24:45;14.40;99.90
7998;DHT22;4044;49.814;7.828;2022-10-31T09:27:11;14.50;99.90
7998;DHT22;4044;49.814;7.828;2022-10-31T09:29:37;14.60;99.90
7998;DHT22;4044;49.814;7.828;2022-10-31T09:32:03;14.60;99.90
7998;DHT22;4044;49.814;7.828;2022-10-31T09:34:28;14.60;99.90
7998;DHT22;4044;49.814;7.828;2022-10-31T09:36:54;14.60;99.90
7998;DHT22;4044;49.814;7.828;2022-10-31T09:39:20;14.70;99.90
7998;DHT22;4044;49.814;7.828;2022-10-31T09:42:17;14.80;99.90
7998;DHT22;4044;49.814;7.828;2022-10-31T09:50:19;15.00;99.90
7998;DHT22;4044;49.814;7.828;2022-10-31T09:53:02;15.20;99.90
7998;DHT22;4044;49.814;7.828;2022-10-31T09:55:36;15.40;99.90
7998;DHT22;4044;49.814;7.828;2022-10-31T09:58:02;15.60;99.90
7998;DHT22;4044;49.814;7.828;2022-10-31T10:00:28;15.90;99.90
7998;DHT22;4044;49.814;7.828;2022-10-31T10:03:06;16.00;99.90
7998;DHT22;4044;49.814;7.828;2022-10-31T10:05:54;16.10;99.90
7998;DHT22;4044;49.814;7.828;2022-10-31T10:08:26;16.30;99.90
7998;DHT22;4044;49.814;7.828;2022-10-31T10:14:05;16.60;99.90
7998;DHT22;4044;49.814;7.828;2022-10-31T10:17:00;16.80;99.90
7998;DHT22;4044;49.814;7.828;2022-10-31T10:25:23;16.80;99.90
7998;DHT22;4044;49.814;7.828;2022-10-31T10:30:41;17.00;99.90
7998;DHT22;4044;49.814;7.828;2022-10-31T10:33:32;17.10;99.90
7998;DHT22;4044;49.814;7.828;2022-10-31T10:36:04;16.90;99.90
7998;DHT22;4044;49.814;7.828;2022-10-31T10:38:45;17.00;99.90
7998;DHT22;4044;49.814;7.828;2022-10-31T10:41:24;17.00;99.90
7998;DHT22;4044;49.814;7.828;2022-10-31T10:43:51;16.90;99.90
7998;DHT22;4044;49.814;7.828;2022-10-31T10:46:40;16.90;99.90
7998;DHT22;4044;49.814;7.828;2022-10-31T10:49:51;17.10;99.90
7998;DHT22;4044;49.814;7.828;2022-10-31T10:52:21;17.40;99.90
7998;DHT22;4044;49.814;7.828;2022-10-31T10:58:01;17.90;99.90
7998;DHT22;4044;49.814;7.828;2022-10-31T11:00:34;17.80;99.90
7998;DHT22;4044;49.814;7.828;2022-10-31T11:03:00;18.00;99.90
7998;DHT22;4044;49.814;7.828;2022-10-31T11:05:35;18.10;99.90
7998;DHT22;4044;49.814;7.828;2022-10-31T11:08:03;18.20;99.90
7998;DHT22;4044;49.814;7.828;2022-10-31T11:10:29;18.40;99.90
7998;DHT22;4044;49.814;7.828;2022-10-31T11:13:16;18.30;99.90
7998;DHT22;4044;49.814;7.828;2022-10-31T11:18:34;18.30;99.90
7998;DHT22;4044;49.814;7.828;2022-10-31T11:21:01;18.40;99.90
7998;DHT22;4044;49.814;7.828;2022-10-31T11:23:31;18.50;99.90
7998;DHT22;4044;49.814;7.828;2022-10-31T11:26:05;18.70;99.90
7998;DHT22;4044;49.814;7.828;2022-10-31T11:28:32;19.00;99.90
7998;DHT22;4044;49.814;7.828;2022-10-31T11:33:44;19.40;99.90
7998;DHT22;4044;49.814;7.828;2022-10-31T11:36:18;19.60;99.90
7998;DHT22;4044;49.814;7.828;2022-10-31T11:38:46;19.90;99.90
7998;DHT22;4044;49.814;7.828;2022-10-31T11:41:34;20.00;99.90
7998;DHT22;4044;49.814;7.828;2022-10-31T11:44:14;20.20;99.80
7998;DHT22;4044;49.814;7.828;2022-10-31T11:46:41;20.20;98.80
7998;DHT22;4044;49.814;7.828;2022-10-31T11:52:04;20.10;99.20
7998;DHT22;4044;49.814;7.828;2022-10-31T11:57:30;20.30;98.50
7998;DHT22;4044;49.814;7.828;2022-10-31T11:59:59;20.50;98.90
7998;DHT22;4044;49.814;7.828;2022-10-31T12:02:25;20.70;98.50
7998;DHT22;4044;49.814;7.828;2022-10-31T12:07:30;20.90;97.80
7998;DHT22;4044;49.814;7.828;2022-10-31T12:09:55;21.10;98.50
7998;DHT22;4044;49.814;7.828;2022-10-31T12:12:35;21.40;98.10
7998;DHT22;4044;49.814;7.828;2022-10-31T12:15:18;21.60;97.50
7998;DHT22;4044;49.814;7.828;2022-10-31T12:20:56;21.90;96.20
7998;DHT22;4044;49.814;7.828;2022-10-31T12:23:52;21.90;96.00
7998;DHT22;4044;49.814;7.828;2022-10-31T12:26:24;21.90;96.60
7998;DHT22;4044;49.814;7.828;2022-10-31T12:45:20;20.80;96.40
7998;DHT22;4044;49.814;7.828;2022-10-31T12:59:01;20.40;97.30
7998;DHT22;4044;49.814;7.828;2022-10-31T13:01:37;20.30;97.20
7998;DHT22;4044;49.814;7.828;2022-10-31T13:07:32;20.20;97.80
7998;DHT22;4044;49.814;7.828;2022-10-31T13:12:27;20.20;98.20
7998;DHT22;4044;49.814;7.828;2022-10-31T13:15:04;20.10;98.40
7998;DHT22;4044;49.814;7.828;2022-10-31T13:17:42;19.90;98.00
7998;DHT22;4044;49.814;7.828;2022-10-31T13:22:44;19.90;97.90
7998;DHT22;4044;49.814;7.828;2022-10-31T13:25:11;20.00;98.20
7998;DHT22;4044;49.814;7.828;2022-10-31T13:27:48;19.80;97.40
7998;DHT22;4044;49.814;7.828;2022-10-31T13:30:21;19.60;98.20
7998;DHT22;4044;49.814;7.828;2022-10-31T13:32:52;19.60;98.70
7998;DHT22;4044;49.814;7.828;2022-10-31T13:35:50;19.30;99.30
7998;DHT22;4044;49.814;7.828;2022-10-31T13:38:40;19.20;99.00
7998;DHT22;4044;49.814;7.828;2022-10-31T13:46:36;19.30;99.30
7998;DHT22;4044;49.814;7.828;2022-10-31T13:49:03;19.60;99.20
7998;DHT22;4044;49.814;7.828;2022-10-31T13:51:33;20.00;98.50
7998;DHT22;4044;49.814;7.828;2022-10-31T13:54:06;20.50;98.20
7998;DHT22;4044;49.814;7.828;2022-10-31T13:56:49;21.30;96.60
7998;DHT22;4044;49.814;7.828;2022-10-31T13:59:27;21.80;95.90
7998;DHT22;4044;49.814;7.828;2022-10-31T14:01:56;21.70;96.00
7998;DHT22;4044;49.814;7.828;2022-10-31T14:04:24;22.10;96.60
7998;DHT22;4044;49.814;7.828;2022-10-31T14:06:53;22.10;96.20
7998;DHT22;4044;49.814;7.828;2022-10-31T14:09:23;22.30;95.50
7998;DHT22;4044;49.814;7.828;2022-10-31T14:11:50;22.50;96.10
7998;DHT22;4044;49.814;7.828;2022-10-31T14:14:17;22.30;95.70
7998;DHT22;4044;49.814;7.828;2022-10-31T14:16:44;22.00;95.90
7998;DHT22;4044;49.814;7.828;2022-10-31T14:19:18;21.70;96.30
7998;DHT22;4044;49.814;7.828;2022-10-31T14:21:49;21.50;96.40
7998;DHT22;4044;49.814;7.828;2022-10-31T14:24:31;21.30;96.40
7998;DHT22;4044;49.814;7.828;2022-10-31T14:29:29;20.80;96.90
7998;DHT22;4044;49.814;7.828;2022-10-31T14:34:43;20.40;97.60
7998;DHT22;4044;49.814;7.828;2022-10-31T14:37:38;20.30;97.70
7998;DHT22;4044;49.814;7.828;2022-10-31T14:40:16;20.10;97.60
7998;DHT22;4044;49.814;7.828;2022-10-31T14:51:13;19.40;99.10
7998;DHT22;4044;49.814;7.828;2022-10-31T14:53:56;19.20;99.60
7998;DHT22;4044;49.814;7.828;2022-10-31T14:56:34;19.10;99.90
7998;DHT22;4044;49.814;7.828;2022-10-31T14:59:05;19.00;99.80
7998;DHT22;4044;49.814;7.828;2022-10-31T15:01:35;18.90;99.90
7998;DHT22;4044;49.814;7.828;2022-10-31T15:04:37;18.70;99.90
7998;DHT22;4044;49.814;7.828;2022-10-31T15:07:22;18.60;99.90
7998;DHT22;4044;49.814;7.828;2022-10-31T15:10:05;18.50;99.90
7998;DHT22;4044;49.814;7.828;2022-10-31T15:12:34;18.40;99.90
7998;DHT22;4044;49.814;7.828;2022-10-31T15:15:20;18.20;99.90
7998;DHT22;4044;49.814;7.828;2022-10-31T15:17:57;18.10;99.90
7998;DHT22;4044;49.814;7.828;2022-10-31T15:20:30;18.20;99.90
7998;DHT22;4044;49.814;7.828;2022-10-31T15:22:57;18.20;99.90
7998;DHT22;4044;49.814;7.828;2022-10-31T15:25:25;18.00;99.90
7998;DHT22;4044;49.814;7.828;2022-10-31T15:27:52;18.00;99.90
7998;DHT22;4044;49.814;7.828;2022-10-31T15:30:22;18.00;99.90
7998;DHT22;4044;49.814;7.828;2022-10-31T15:32:48;17.90;99.90
7998;DHT22;4044;49.814;7.828;2022-10-31T15:35:26;17.80;99.90
7998;DHT22;4044;49.814;7.828;2022-10-31T15:37:52;17.60;99.90
7998;DHT22;4044;49.814;7.828;2022-10-31T15:40:22;17.50;99.90
7998;DHT22;4044;49.814;7.828;2022-10-31T15:42:56;17.30;99.90
7998;DHT22;4044;49.814;7.828;2022-10-31T15:45:25;17.10;99.90
7998;DHT22;4044;49.814;7.828;2022-10-31T15:48:03;17.10;99.90
7998;DHT22;4044;49.814;7.828;2022-10-31T15:50:38;17.10;99.90
7998;DHT22;4044;49.814;7.828;2022-10-31T15:53:13;17.00;99.90
7998;DHT22;4044;49.814;7.828;2022-10-31T15:55:48;17.00;99.90
7998;DHT22;4044;49.814;7.828;2022-10-31T15:58:16;16.90;99.90
7998;DHT22;4044;49.814;7.828;2022-10-31T16:00:42;16.80;99.90
7998;DHT22;4044;49.814;7.828;2022-10-31T16:05:51;16.60;99.90
7998;DHT22;4044;49.814;7.828;2022-10-31T16:13:31;16.10;99.90
7998;DHT22;4044;49.814;7.828;2022-10-31T16:16:00;16.00;99.90
7998;DHT22;4044;49.814;7.828;2022-10-31T16:18:29;15.80;99.90
7998;DHT22;4044;49.814;7.828;2022-10-31T16:20:56;15.70;99.90
7998;DHT22;4044;49.814;7.828;2022-10-31T16:23:24;15.60;99.90
7998;DHT22;4044;49.814;7.828;2022-10-31T16:25:50;15.50;99.90
7998;DHT22;4044;49.814;7.828;2022-10-31T16:28:24;15.40;99.90
7998;DHT22;4044;49.814;7.828;2022-10-31T16:30:52;15.10;99.90
7998;DHT22;4044;49.814;7.828;2022-10-31T16:33:36;15.00;99.90
7998;DHT22;4044;49.814;7.828;2022-10-31T16:38:52;14.70;99.90
7998;DHT22;4044;49.814;7.828;2022-10-31T16:41:18;14.60;99.90
7998;DHT22;4044;49.814;7.828;2022-10-31T16:43:44;14.60;99.90
7998;DHT22;4044;49.814;7.828;2022-10-31T16:46:15;14.50;99.90
7998;DHT22;4044;49.814;7.828;2022-10-31T16:48:42;14.50;99.90
7998;DHT22;4044;49.814;7.828;2022-10-31T16:51:07;14.40;99.90
7998;DHT22;4044;49.814;7.828;2022-10-31T16:53:33;14.30;99.90
7998;DHT22;4044;49.814;7.828;2022-10-31T16:55:59;14.30;99.90
7998;DHT22;4044;49.814;7.828;2022-10-31T16:58:29;14.30;99.90
7998;DHT22;4044;49.814;7.828;2022-10-31T17:00:56;14.20;99.90
7998;DHT22;4044;49.814;7.828;2022-10-31T17:03:22;14.20;99.90
7998;DHT22;4044;49.814;7.828;2022-10-31T17:05:48;14.20;99.90
7998;DHT22;4044;49.814;7.828;2022-10-31T17:08:14;14.20;99.90
7998;DHT22;4044;49.814;7.828;2022-10-31T17:10:40;14.10;99.90
7998;DHT22;4044;49.814;7.828;2022-10-31T17:13:12;14.10;99.90
7998;DHT22;4044;49.814;7.828;2022-10-31T17:15:45;13.90;99.90
7998;DHT22;4044;49.814;7.828;2022-10-31T17:18:12;13.70;99.90
7998;DHT22;4044;49.814;7.828;2022-10-31T17:20:38;13.60;99.90
7998;DHT22;4044;49.814;7.828;2022-10-31T17:23:04;13.60;99.90
7998;DHT22;4044;49.814;7.828;2022-10-31T17:25:30;13.60;99.90
7998;DHT22;4044;49.814;7.828;2022-10-31T17:28:00;13.50;99.90
7998;DHT22;4044;49.814;7.828;2022-10-31T17:30:25;13.40;99.90
7998;DHT22;4044;49.814;7.828;2022-10-31T17:32:51;13.20;99.90
7998;DHT22;4044;49.814;7.828;2022-10-31T17:35:18;13.10;99.90
7998;DHT22;4044;49.814;7.828;2022-10-31T17:37:44;13.00;99.90
7998;DHT22;4044;49.814;7.828;2022-10-31T17:40:12;13.00;99.90
7998;DHT22;4044;49.814;7.828;2022-10-31T17:42:38;12.90;99.90
7998;DHT22;4044;49.814;7.828;2022-10-31T17:45:05;12.90;99.90
7998;DHT22;4044;49.814;7.828;2022-10-31T17:47:31;12.90;99.90
7998;DHT22;4044;49.814;7.828;2022-10-31T17:49:57;12.90;99.90
7998;DHT22;4044;49.814;7.828;2022-10-31T17:52:23;12.90;99.90
7998;DHT22;4044;49.814;7.828;2022-10-31T17:54:48;12.80;99.90
7998;DHT22;4044;49.814;7.828;2022-10-31T17:57:14;12.80;99.90
7998;DHT22;4044;49.814;7.828;2022-10-31T17:59:40;12.80;99.90
7998;DHT22;4044;49.814;7.828;2022-10-31T18:02:08;12.70;99.90
7998;DHT22;4044;49.814;7.828;2022-10-31T18:04:35;12.70;99.90
7998;DHT22;4044;49.814;7.828;2022-10-31T18:07:00;12.70;99.90
7998;DHT22;4044;49.814;7.828;2022-10-31T18:09:26;12.70;99.90
7998;DHT22;4044;49.814;7.828;2022-10-31T18:11:52;12.70;99.90
7998;DHT22;4044;49.814;7.828;2022-10-31T18:14:18;12.70;99.90
7998;DHT22;4044;49.814;7.828;2022-10-31T18:16:43;12.70;99.90
7998;DHT22;4044;49.814;7.828;2022-10-31T18:19:11;12.50;99.90
7998;DHT22;4044;49.814;7.828;2022-10-31T18:21:37;12.50;99.90